createdAt,value
2018-06-14T00:01:44.446Z,16.86
2018-06-14T00:04:14.252Z,17.06
2018-06-14T00:06:44.099Z,16.87
2018-06-14T00:09:13.553Z,16.84
2018-06-14T00:11:43.144Z,16.87
2018-06-14T00:14:13.112Z,16.68
2018-06-14T00:16:42.824Z,16.78
2018-06-14T00:19:12.873Z,16.82
2018-06-14T00:21:43.289Z,16.58
2018-06-14T00:24:13.154Z,16.50
2018-06-14T00:26:43.303Z,16.55
2018-06-14T00:29:13.117Z,16.55
2018-06-14T00:31:43.028Z,16.60
2018-06-14T00:34:12.851Z,16.79
2018-06-14T00:36:42.666Z,16.91
2018-06-14T00:39:11.994Z,16.68
2018-06-14T00:41:41.266Z,16.81
2018-06-14T00:44:10.863Z,16.69
2018-06-14T00:46:44.874Z,16.90
2018-06-14T00:49:14.219Z,16.79
2018-06-14T00:51:43.650Z,16.64
2018-06-14T00:54:12.990Z,16.93
2018-06-14T00:57:32.605Z,16.98
2018-06-14T01:00:01.907Z,16.89
2018-06-14T01:02:33.454Z,16.83
2018-06-14T01:05:03.571Z,16.82
2018-06-14T01:07:32.935Z,16.96
2018-06-14T01:10:02.234Z,17.04
2018-06-14T01:12:31.662Z,16.98
2018-06-14T01:15:01.051Z,16.95
2018-06-14T01:17:30.563Z,17.02
2018-06-14T01:20:00.421Z,17.11
2018-06-14T01:22:30.240Z,17.06
2018-06-14T01:24:59.605Z,16.99
2018-06-14T01:27:29.213Z,17.15
2018-06-14T01:29:59.009Z,17.13
2018-06-14T01:32:28.486Z,17.00
2018-06-14T01:34:58.035Z,16.85
2018-06-14T01:37:44.318Z,16.66
2018-06-14T01:40:13.840Z,16.78
2018-06-14T01:42:43.526Z,16.74
2018-06-14T01:45:12.943Z,16.46
2018-06-14T01:47:42.585Z,16.35
2018-06-14T01:50:12.035Z,16.39
2018-06-14T01:52:41.436Z,16.50
2018-06-14T01:55:10.981Z,16.77
2018-06-14T01:57:40.515Z,16.64
2018-06-14T02:00:09.607Z,16.66
2018-06-14T02:02:39.420Z,16.81
2018-06-14T02:05:09.211Z,16.64
2018-06-14T02:07:39.059Z,16.31
2018-06-14T02:10:08.823Z,15.90
2018-06-14T02:12:38.161Z,16.06
2018-06-14T02:15:07.926Z,16.06
2018-06-14T02:17:37.585Z,16.26
2018-06-14T02:20:07.447Z,16.44
2018-06-14T02:22:36.730Z,16.51
2018-06-14T02:25:06.251Z,16.58
2018-06-14T02:27:35.571Z,16.37
2018-06-14T02:30:05.238Z,16.21
2018-06-14T02:32:35.107Z,16.35
2018-06-14T02:35:04.464Z,16.58
2018-06-14T02:37:38.042Z,16.72
2018-06-14T02:40:07.575Z,16.75
2018-06-14T02:42:37.322Z,16.82
2018-06-14T02:45:07.137Z,16.59
2018-06-14T02:47:37.104Z,16.47
2018-06-14T02:50:07.342Z,16.51
2018-06-14T02:52:37.484Z,16.52
2018-06-14T02:55:07.938Z,16.03
2018-06-14T02:57:37.907Z,16.10
2018-06-14T03:00:09.044Z,16.21
2018-06-14T03:02:38.386Z,16.30
2018-06-14T03:05:07.697Z,16.51
2018-06-14T03:07:37.176Z,16.49
2018-06-14T03:10:06.951Z,16.40
2018-06-14T03:12:36.333Z,16.73
2018-06-14T03:15:05.887Z,16.74
2018-06-14T03:17:35.243Z,16.44
2018-06-14T03:20:04.522Z,16.24
2018-06-14T03:22:33.827Z,16.21
2018-06-14T03:25:03.110Z,16.09
2018-06-14T03:27:32.430Z,16.25
2018-06-14T03:30:01.704Z,16.45
2018-06-14T03:32:30.977Z,16.42
2018-06-14T03:35:00.499Z,16.39
2018-06-14T03:37:30.287Z,16.42
2018-06-14T03:39:59.554Z,16.37
2018-06-14T03:42:28.800Z,16.36
2018-06-14T03:44:58.110Z,16.41
2018-06-14T03:47:33.543Z,16.25
2018-06-14T03:50:02.867Z,16.29
2018-06-14T03:52:32.175Z,16.27
2018-06-14T03:55:01.452Z,16.28
2018-06-14T03:57:30.843Z,15.90
2018-06-14T04:00:00.144Z,16.16
2018-06-14T04:02:29.390Z,16.38
2018-06-14T04:04:58.666Z,16.19
2018-06-14T04:07:28.029Z,15.99
2018-06-14T04:09:57.677Z,15.92
2018-06-14T04:12:27.055Z,15.97
2018-06-14T04:14:56.334Z,15.80
2018-06-14T04:17:25.727Z,15.85
2018-06-14T04:19:55.765Z,15.79
2018-06-14T04:22:25.136Z,15.81
2018-06-14T04:24:54.434Z,15.79
2018-06-14T04:27:23.769Z,15.89
2018-06-14T04:29:53.129Z,16.05
2018-06-14T04:32:22.443Z,15.94
2018-06-14T04:34:51.826Z,15.98
2018-06-14T04:37:21.164Z,16.12
2018-06-14T04:39:50.324Z,16.02
2018-06-14T04:42:19.840Z,16.14
2018-06-14T04:44:49.262Z,16.20
2018-06-14T04:47:18.502Z,16.31
2018-06-14T04:49:47.807Z,16.23
2018-06-14T04:52:17.115Z,16.11
2018-06-14T04:54:48.517Z,16.19
2018-06-14T04:57:18.668Z,16.36
2018-06-14T04:59:47.952Z,16.43
2018-06-14T05:02:17.494Z,16.48
2018-06-14T05:04:46.755Z,16.58
2018-06-14T05:07:15.803Z,16.56
2018-06-14T05:09:45.134Z,16.11
2018-06-14T05:12:14.652Z,16.64
2018-06-14T05:14:43.998Z,16.92
2018-06-14T05:17:13.374Z,16.94
2018-06-14T05:19:42.688Z,17.22
2018-06-14T05:22:12.045Z,17.28
2018-06-14T05:24:41.861Z,17.39
2018-06-14T05:27:11.211Z,17.39
2018-06-14T05:29:40.623Z,17.84
2018-06-14T05:32:10.148Z,17.66
2018-06-14T05:34:39.492Z,17.72
2018-06-14T05:37:08.768Z,17.70
2018-06-14T05:39:38.231Z,17.48
2018-06-14T05:42:07.570Z,17.83
2018-06-14T05:44:36.962Z,18.31
2018-06-14T05:47:06.443Z,18.17
2018-06-14T05:49:35.959Z,18.03
2018-06-14T05:52:05.356Z,18.29
2018-06-14T05:54:34.630Z,18.34
2018-06-14T05:57:03.949Z,18.58
2018-06-14T05:59:33.222Z,18.77
2018-06-14T06:02:02.528Z,18.79
2018-06-14T06:04:31.819Z,18.93
2018-06-14T06:07:01.088Z,18.84
2018-06-14T06:09:30.740Z,19.06
2018-06-14T06:12:00.132Z,18.40
2018-06-14T06:14:29.451Z,18.39
2018-06-14T06:16:59.006Z,18.60
2018-06-14T06:19:28.742Z,18.76
2018-06-14T06:21:58.044Z,18.90
2018-06-14T06:24:27.482Z,18.89
2018-06-14T06:26:56.774Z,18.45
2018-06-14T06:29:26.143Z,18.59
2018-06-14T06:31:55.962Z,18.37
2018-06-14T06:34:25.294Z,18.37
2018-06-14T06:36:54.702Z,18.73
2018-06-14T06:39:24.073Z,18.74
2018-06-14T06:41:53.375Z,18.94
2018-06-14T06:44:22.683Z,18.74
2018-06-14T06:46:52.109Z,18.88
2018-06-14T06:49:21.441Z,18.81
2018-06-14T06:51:50.775Z,18.48
2018-06-14T06:54:20.453Z,18.40
2018-06-14T06:56:49.857Z,18.63
2018-06-14T06:59:19.309Z,18.64
2018-06-14T07:01:48.643Z,18.75
2018-06-14T07:04:17.730Z,19.41
2018-06-14T07:06:47.066Z,19.73
2018-06-14T07:09:16.371Z,19.14
2018-06-14T07:11:45.679Z,18.96
2018-06-14T07:14:14.978Z,19.52
2018-06-14T07:16:44.567Z,19.64
2018-06-14T07:19:13.990Z,19.66
2018-06-14T07:21:43.288Z,19.60
2018-06-14T07:24:12.627Z,20.31
2018-06-14T07:26:42.054Z,19.85
2018-06-14T07:29:11.151Z,19.89
2018-06-14T07:31:40.334Z,20.32
2018-06-14T07:34:09.715Z,20.28
2018-06-14T07:36:39.215Z,20.20
2018-06-14T07:41:39.617Z,20.03
2018-06-14T07:44:09.005Z,19.73
2018-06-14T07:46:38.410Z,20.26
2018-06-14T07:49:07.815Z,19.90
2018-06-14T07:51:37.106Z,19.63
2018-06-14T07:54:06.482Z,20.30
2018-06-14T07:56:35.805Z,19.93
2018-06-14T07:59:05.104Z,20.18
2018-06-14T08:01:34.692Z,20.12
2018-06-14T08:04:04.017Z,20.59
2018-06-14T08:06:33.443Z,21.34
2018-06-14T08:09:02.824Z,21.31
2018-06-14T08:11:32.262Z,21.42
2018-06-14T08:14:01.612Z,21.74
2018-06-14T08:16:30.957Z,21.79
2018-06-14T08:19:00.057Z,20.94
2018-06-14T08:21:29.488Z,21.79
2018-06-14T08:23:59.368Z,22.04
2018-06-14T08:26:28.756Z,22.59
2018-06-14T08:28:58.207Z,22.85
2018-06-14T08:31:27.621Z,22.67
2018-06-14T08:33:57.044Z,23.16
2018-06-14T08:36:26.407Z,22.93
2018-06-14T08:38:55.895Z,22.86
2018-06-14T08:41:25.387Z,22.72
2018-06-14T08:43:54.759Z,22.65
2018-06-14T08:46:24.296Z,22.24
2018-06-14T08:48:53.595Z,22.75
2018-06-14T08:51:22.941Z,22.72
2018-06-14T08:53:52.264Z,22.99
2018-06-14T08:56:21.675Z,23.30
2018-06-14T08:58:51.055Z,22.82
2018-06-14T09:01:20.558Z,23.21
2018-06-14T09:03:49.914Z,23.67
2018-06-14T09:06:19.374Z,23.03
2018-06-14T09:08:48.957Z,23.07
2018-06-14T09:11:18.843Z,22.28
2018-06-14T09:13:48.269Z,22.49
2018-06-14T09:16:17.612Z,23.09
2018-06-14T09:18:46.976Z,22.82
2018-06-14T09:21:16.278Z,22.86
2018-06-14T09:23:45.614Z,22.85
2018-06-14T09:26:14.951Z,22.72
2018-06-14T09:28:44.269Z,23.06
2018-06-14T09:31:13.908Z,22.81
2018-06-14T09:33:43.315Z,22.60
2018-06-14T09:36:12.746Z,22.20
2018-06-14T09:38:42.093Z,22.14
2018-06-14T09:41:11.388Z,21.85
2018-06-14T09:43:40.699Z,22.20
2018-06-14T09:46:10.123Z,22.66
2018-06-14T09:48:39.563Z,23.34
2018-06-14T09:51:08.987Z,23.72
2018-06-14T09:53:38.539Z,23.81
2018-06-14T09:56:08.196Z,23.59
2018-06-14T09:58:37.659Z,24.11
2018-06-14T10:01:07.048Z,23.59
2018-06-14T10:03:36.391Z,23.20
2018-06-14T10:06:05.898Z,23.13
2018-06-14T10:08:35.243Z,23.72
2018-06-14T10:11:04.598Z,23.28
2018-06-14T10:13:33.896Z,23.74
2018-06-14T10:16:04.494Z,24.13
2018-06-14T10:18:33.864Z,24.54
2018-06-14T10:21:03.326Z,23.64
2018-06-14T10:23:32.788Z,23.60
2018-06-14T10:26:02.199Z,23.92
2018-06-14T10:28:31.433Z,23.79
2018-06-14T10:31:01.444Z,23.56
2018-06-14T10:33:30.859Z,23.51
2018-06-14T10:36:00.221Z,24.02
2018-06-14T10:38:29.930Z,24.06
2018-06-14T10:40:59.175Z,24.49
2018-06-14T10:43:28.672Z,24.10
2018-06-14T10:45:58.186Z,23.77
2018-06-14T10:48:27.575Z,24.03
2018-06-14T10:50:57.505Z,24.22
2018-06-14T10:53:26.910Z,24.32
2018-06-14T10:55:56.269Z,23.96
2018-06-14T10:58:25.610Z,24.15
2018-06-14T11:00:55.294Z,24.30
2018-06-14T11:03:24.714Z,24.90
2018-06-14T11:05:54.044Z,24.72
2018-06-14T11:08:23.386Z,25.30
2018-06-14T11:10:52.435Z,25.33
2018-06-14T11:13:21.833Z,24.47
2018-06-14T11:15:51.145Z,23.63
2018-06-14T11:18:20.643Z,23.72
2018-06-14T11:20:49.949Z,23.76
2018-06-14T11:23:19.580Z,24.44
2018-06-14T11:25:48.936Z,24.60
2018-06-14T11:28:18.501Z,24.54
2018-06-14T11:30:47.892Z,24.00
2018-06-14T11:33:17.239Z,24.23
2018-06-14T11:35:46.631Z,24.07
2018-06-14T11:38:16.001Z,23.96
2018-06-14T11:40:45.332Z,23.97
2018-06-14T11:43:14.768Z,23.93
2018-06-14T11:45:44.652Z,24.32
2018-06-14T11:48:14.109Z,24.27
2018-06-14T11:50:43.551Z,24.38
2018-06-14T11:53:12.902Z,24.29
2018-06-14T11:55:42.202Z,23.53
2018-06-14T11:58:11.631Z,23.99
2018-06-14T12:00:41.012Z,24.37
2018-06-14T12:03:10.363Z,24.98
2018-06-14T12:05:39.714Z,25.44
2018-06-14T12:08:09.090Z,24.36
2018-06-14T12:10:38.387Z,24.60
2018-06-14T12:13:07.648Z,24.36
2018-06-14T12:15:37.080Z,24.70
2018-06-14T12:18:06.408Z,23.99
2018-06-14T12:20:36.071Z,24.14
2018-06-14T12:23:05.547Z,24.30
2018-06-14T12:25:34.951Z,24.22
2018-06-14T12:28:04.453Z,24.44
2018-06-14T12:30:34.259Z,24.64
2018-06-14T12:33:03.610Z,24.12
2018-06-14T12:35:32.888Z,24.64
2018-06-14T12:38:02.535Z,24.96
2018-06-14T12:40:31.976Z,24.59
2018-06-14T12:43:01.376Z,24.83
2018-06-14T12:45:30.700Z,24.99
2018-06-14T12:48:00.145Z,25.12
2018-06-14T12:50:29.246Z,24.74
2018-06-14T12:52:58.991Z,24.67
2018-06-14T12:55:28.365Z,24.89
2018-06-14T12:57:57.666Z,25.38
2018-06-14T13:00:26.986Z,24.96
2018-06-14T13:02:56.279Z,25.57
2018-06-14T13:05:25.731Z,25.49
2018-06-14T13:07:55.238Z,25.19
2018-06-14T13:10:24.571Z,25.31
2018-06-14T13:12:53.859Z,25.19
2018-06-14T13:15:23.452Z,24.52
2018-06-14T13:17:52.735Z,24.94
2018-06-14T13:20:22.065Z,24.93
2018-06-14T13:22:51.368Z,24.73
2018-06-14T13:25:20.717Z,24.91
2018-06-14T13:27:49.947Z,24.35
2018-06-14T13:30:19.266Z,24.46
2018-06-14T13:32:48.670Z,25.27
2018-06-14T13:35:17.952Z,25.11
2018-06-14T13:37:47.475Z,25.15
2018-06-14T13:40:17.048Z,24.86
2018-06-14T13:42:46.426Z,25.30
2018-06-14T13:45:15.820Z,25.99
2018-06-14T13:47:45.208Z,26.34
2018-06-14T13:50:14.672Z,25.71
2018-06-14T13:52:44.034Z,25.54
2018-06-14T13:55:13.356Z,24.75
2018-06-14T13:57:42.701Z,25.06
2018-06-14T14:00:12.435Z,24.54
2018-06-14T14:02:41.787Z,24.64
2018-06-14T14:05:11.091Z,24.27
2018-06-14T14:07:40.448Z,24.71
2018-06-14T14:10:09.824Z,25.04
2018-06-14T14:12:39.185Z,25.29
2018-06-14T14:15:08.518Z,25.34
2018-06-14T14:17:37.895Z,24.98
2018-06-14T14:20:07.156Z,25.13
2018-06-14T14:22:37.159Z,25.21
2018-06-14T14:25:06.513Z,25.17
2018-06-14T14:27:36.005Z,25.19
2018-06-14T14:30:05.408Z,25.23
2018-06-14T14:32:34.741Z,24.97
2018-06-14T14:35:04.255Z,25.08
2018-06-14T14:37:33.677Z,25.47
2018-06-14T14:40:03.040Z,26.02
2018-06-14T14:42:32.409Z,25.14
2018-06-14T14:45:02.117Z,25.15
2018-06-14T14:47:31.498Z,25.80
2018-06-14T14:50:00.942Z,25.56
2018-06-14T14:52:30.478Z,25.14
2018-06-14T14:54:59.943Z,24.86
2018-06-14T14:57:29.394Z,25.21
2018-06-14T14:59:58.786Z,25.18
2018-06-14T15:02:28.163Z,25.55
2018-06-14T15:04:57.530Z,25.39
2018-06-14T15:07:27.070Z,25.23
2018-06-14T15:09:56.454Z,25.24
2018-06-14T15:12:25.978Z,25.67
2018-06-14T15:14:55.339Z,25.96
2018-06-14T15:17:24.671Z,25.85
2018-06-14T15:19:54.050Z,24.84
2018-06-14T15:22:23.437Z,24.53
2018-06-14T15:24:52.744Z,25.03
2018-06-14T15:27:22.130Z,24.47
2018-06-14T15:29:51.872Z,24.91
2018-06-14T15:32:21.245Z,24.96
2018-06-14T15:34:50.558Z,25.06
2018-06-14T15:37:20.017Z,25.11
2018-06-14T15:39:49.376Z,25.25
2018-06-14T15:42:18.717Z,25.55
2018-06-14T15:44:48.088Z,25.58
2018-06-14T15:47:17.425Z,25.85
2018-06-14T15:49:46.811Z,26.25
2018-06-14T15:52:16.461Z,26.41
2018-06-14T15:54:56.753Z,26.39
2018-06-14T15:57:26.163Z,26.34
2018-06-14T15:59:55.515Z,25.52
2018-06-14T16:02:24.838Z,25.03
2018-06-14T16:04:54.715Z,24.87
2018-06-14T16:07:24.069Z,25.04
2018-06-14T16:09:53.395Z,25.23
2018-06-14T16:12:23.078Z,25.21
2018-06-14T16:14:52.460Z,24.85
2018-06-14T16:17:21.781Z,25.14
2018-06-14T16:19:51.117Z,25.38
2018-06-14T16:22:20.397Z,25.68
2018-06-14T16:24:49.709Z,25.63
2018-06-14T16:27:19.063Z,25.41
2018-06-14T16:29:48.464Z,25.80
2018-06-14T16:32:17.869Z,26.02
2018-06-14T16:34:47.751Z,25.79
2018-06-14T16:37:17.052Z,25.75
2018-06-14T16:39:46.405Z,25.91
2018-06-14T16:42:15.848Z,25.62
2018-06-14T16:44:45.161Z,25.53
2018-06-14T16:47:14.507Z,25.80
2018-06-14T16:49:43.875Z,25.57
2018-06-14T16:52:13.158Z,25.46
2018-06-14T16:54:42.447Z,25.47
2018-06-14T16:57:11.912Z,25.45
2018-06-14T16:59:41.428Z,25.41
2018-06-14T17:02:10.771Z,25.59
2018-06-14T17:04:40.179Z,25.69
2018-06-14T17:07:09.455Z,25.79
2018-06-14T17:09:38.735Z,25.63
2018-06-14T17:12:08.099Z,25.47
2018-06-14T17:14:37.493Z,25.44
2018-06-14T17:17:06.627Z,25.49
2018-06-14T17:19:36.355Z,25.67
2018-06-14T17:22:05.754Z,25.37
2018-06-14T17:24:35.168Z,25.01
2018-06-14T17:27:04.750Z,25.07
2018-06-14T17:29:34.596Z,24.91
2018-06-14T17:32:03.885Z,25.01
2018-06-14T17:34:33.363Z,25.06
2018-06-14T17:37:02.909Z,25.12
2018-06-14T17:39:32.449Z,24.62
2018-06-14T17:42:02.016Z,24.31
2018-06-14T17:44:31.465Z,24.13
2018-06-14T17:47:00.786Z,24.05
2018-06-14T17:49:30.117Z,24.08
2018-06-14T17:51:59.576Z,24.14
2018-06-14T17:54:28.995Z,23.70
2018-06-14T17:56:58.354Z,23.40
2018-06-14T17:59:27.789Z,22.69
2018-06-14T18:01:57.151Z,22.46
2018-06-14T18:04:26.668Z,21.90
2018-06-14T18:06:55.991Z,21.77
2018-06-14T18:09:25.322Z,21.65
2018-06-14T18:11:54.701Z,21.64
2018-06-14T18:14:24.208Z,21.17
2018-06-14T18:16:53.306Z,21.03
2018-06-14T18:19:22.739Z,20.72
2018-06-14T18:21:52.261Z,20.54
2018-06-14T18:24:21.607Z,20.62
2018-06-14T18:26:51.166Z,20.69
2018-06-14T18:29:20.538Z,20.56
2018-06-14T18:31:49.822Z,20.50
2018-06-14T18:34:19.391Z,20.44
2018-06-14T18:36:49.356Z,20.21
2018-06-14T18:39:18.790Z,19.95
2018-06-14T18:41:48.250Z,20.03
2018-06-14T18:44:17.698Z,20.12
2018-06-14T18:46:47.015Z,20.09
2018-06-14T18:49:16.995Z,20.13
2018-06-14T18:51:46.420Z,20.13
2018-06-14T18:54:15.882Z,19.99
2018-06-14T18:56:45.252Z,20.11
2018-06-14T18:59:14.598Z,19.93
2018-06-14T19:01:44.017Z,20.07
2018-06-14T19:04:13.439Z,20.04
2018-06-14T19:06:42.858Z,20.08
2018-06-14T19:09:12.247Z,19.54
2018-06-14T19:11:41.928Z,19.60
2018-06-14T19:14:11.296Z,19.68
2018-06-14T19:16:41.427Z,19.76
2018-06-14T19:19:10.924Z,19.98
2018-06-14T19:21:40.263Z,20.02
2018-06-14T19:24:09.378Z,19.99
2018-06-14T19:26:38.795Z,19.60
2018-06-14T19:29:08.255Z,19.67
2018-06-14T19:31:37.727Z,19.64
2018-06-14T19:34:07.607Z,19.56
2018-06-14T19:36:36.957Z,19.71
2018-06-14T19:39:09.915Z,19.47
2018-06-14T19:41:39.387Z,19.61
2018-06-14T19:44:08.729Z,19.70
2018-06-14T19:46:38.118Z,19.19
2018-06-14T19:49:07.591Z,19.28
2018-06-14T19:51:37.031Z,19.35
2018-06-14T19:54:06.676Z,19.45
2018-06-14T19:56:36.407Z,19.27
2018-06-14T19:59:05.762Z,19.17
2018-06-14T20:01:35.134Z,19.25
2018-06-14T20:04:04.486Z,19.50
2018-06-14T20:06:34.124Z,19.53
2018-06-14T20:09:03.589Z,19.29
2018-06-14T20:11:32.970Z,19.42
2018-06-14T20:14:02.557Z,19.51
2018-06-14T20:16:32.264Z,19.26
2018-06-14T20:19:02.044Z,19.13
2018-06-14T20:21:31.365Z,19.38
2018-06-14T20:24:01.711Z,19.36
2018-06-14T20:26:31.068Z,19.20
2018-06-14T20:29:00.545Z,19.41
2018-06-14T20:31:30.078Z,19.44
2018-06-14T20:33:59.541Z,19.23
2018-06-14T20:36:28.894Z,19.25
2018-06-14T20:38:58.540Z,19.38
2018-06-14T20:41:27.952Z,19.65
2018-06-14T20:43:57.454Z,19.64
2018-06-14T20:46:27.088Z,19.39
2018-06-14T20:48:56.441Z,19.40
2018-06-14T20:51:25.889Z,19.20
2018-06-14T20:53:55.297Z,19.19
2018-06-14T20:56:24.679Z,19.29
2018-06-14T20:58:54.046Z,19.10
2018-06-14T21:01:23.595Z,19.05
2018-06-14T21:03:53.001Z,18.97
2018-06-14T21:06:22.326Z,19.26
2018-06-14T21:08:51.760Z,19.00
2018-06-14T21:11:21.063Z,19.37
2018-06-14T21:13:50.575Z,19.25
2018-06-14T21:16:20.054Z,19.31
2018-06-14T21:18:49.407Z,19.25
2018-06-14T21:21:18.916Z,19.07
2018-06-14T21:23:48.797Z,19.14
2018-06-14T21:26:18.188Z,19.25
2018-06-14T21:28:47.586Z,19.20
2018-06-14T21:31:16.984Z,19.41
2018-06-14T21:33:46.297Z,19.46
2018-06-14T21:36:15.764Z,19.31
2018-06-14T21:38:45.172Z,19.25
2018-06-14T21:41:14.459Z,19.24
2018-06-14T21:43:43.860Z,19.14
2018-06-14T21:46:13.313Z,19.16
2018-06-14T21:48:42.698Z,19.41
2018-06-14T21:51:12.051Z,19.12
2018-06-14T21:53:41.419Z,19.02
2018-06-14T21:56:10.754Z,18.92
2018-06-14T21:58:40.104Z,18.64
2018-06-14T22:01:10.267Z,18.85
2018-06-14T22:03:44.762Z,19.24
2018-06-14T22:06:14.326Z,19.39
2018-06-14T22:08:43.671Z,19.09
2018-06-14T22:11:13.044Z,19.02
2018-06-14T22:13:42.457Z,19.10
2018-06-14T22:16:11.858Z,18.98
2018-06-14T22:18:41.196Z,18.79
2018-06-14T22:21:10.775Z,19.01
2018-06-14T22:23:40.335Z,19.14
2018-06-14T22:26:09.608Z,19.12
2018-06-14T22:28:39.226Z,19.20
2018-06-14T22:31:08.588Z,19.05
2018-06-14T22:34:57.155Z,19.13
2018-06-14T22:37:26.578Z,18.89
2018-06-14T22:39:55.986Z,18.99
2018-06-14T22:42:25.511Z,19.20
2018-06-14T22:44:54.775Z,19.26
2018-06-14T22:47:24.101Z,19.19
2018-06-14T22:49:53.874Z,19.24
2018-06-14T22:52:58.670Z,19.12
2018-06-14T22:55:28.060Z,19.15
2018-06-14T22:57:57.462Z,19.21
2018-06-14T23:01:01.086Z,19.18
2018-06-14T23:03:30.170Z,18.99
2018-06-14T23:05:59.659Z,18.83
2018-06-14T23:08:29.567Z,18.79
2018-06-14T23:11:15.926Z,18.72
2018-06-14T23:13:45.238Z,18.75
2018-06-14T23:16:14.714Z,18.63
2018-06-14T23:18:44.116Z,18.78
2018-06-14T23:21:13.557Z,18.89
2018-06-14T23:23:42.985Z,18.97
2018-06-14T23:26:12.459Z,18.76
2018-06-14T23:28:42.359Z,18.68
2018-06-14T23:31:11.705Z,18.96
2018-06-14T23:33:41.063Z,18.94
2018-06-14T23:36:10.374Z,18.84
2018-06-14T23:38:39.671Z,18.62
2018-06-14T23:41:08.960Z,18.88
2018-06-14T23:43:38.399Z,18.92
2018-06-14T23:46:07.642Z,19.07
2018-06-14T23:48:36.991Z,19.00
2018-06-14T23:51:06.647Z,19.07
2018-06-14T23:53:35.955Z,18.91
2018-06-14T23:56:05.289Z,19.03
2018-06-14T23:58:34.615Z,19.18
